Time;durP1;ratioP1;P1;durP2;ratioP2;P2;SDS_P1;SDS_P2;PMS_P1;PMS_P2;Temp;Humidity;BMP_temperature;BMP_pressure;BME280_temperature;BME280_humidity;BME280_pressure;Samples;Min_cycle;Max_cycle;Signal;HPM_P1;HPM_P2
2021/04/21 00:00:57;;;;;;;19.85;13.13;;;7.20;74.50;;;;;;6203599;23;20013;-63
2021/04/21 00:03:22;;;;;;;23.48;13.75;;;7.40;74.90;;;;;;6206967;23;20000;-63
2021/04/21 00:05:48;;;;;;;20.60;12.95;;;7.30;74.60;;;;;;6209776;23;20178;-63
2021/04/21 00:08:13;;;;;;;20.48;13.48;;;7.40;74.40;;;;;;6197369;23;20055;-63
2021/04/21 00:10:39;;;;;;;20.63;13.55;;;7.40;74.30;;;;;;6201402;23;20303;-63
2021/04/21 00:13:07;;;;;;;18.90;12.35;;;7.30;74.30;;;;;;6179241;23;20035;-63
2021/04/21 00:15:33;;;;;;;20.00;12.80;;;7.30;74.30;;;;;;6205934;23;20063;-63
2021/04/21 00:18:00;;;;;;;19.33;12.10;;;7.40;74.20;;;;;;6210157;23;19997;-62
2021/04/21 00:20:25;;;;;;;22.67;13.73;;;7.40;73.70;;;;;;6225388;23;20068;-63
2021/04/21 00:22:54;;;;;;;21.83;13.32;;;7.20;73.40;;;;;;6227273;23;20012;-63
2021/04/21 00:25:19;;;;;;;18.83;12.02;;;7.20;73.80;;;;;;6202451;23;20322;-63
2021/04/21 00:27:45;;;;;;;20.08;12.82;;;7.10;74.10;;;;;;6205184;23;20008;-63
2021/04/21 00:30:11;;;;;;;22.20;13.95;;;7.00;74.10;;;;;;6210040;23;20023;-63
2021/04/21 00:32:41;;;;;;;20.80;13.30;;;7.10;74.20;;;;;;6174018;23;20020;-63
2021/04/21 00:35:07;;;;;;;20.42;12.88;;;6.90;73.60;;;;;;6200922;23;20066;-63
2021/04/21 00:37:33;;;;;;;23.98;13.43;;;6.90;74.00;;;;;;6197959;23;20227;-63
2021/04/21 00:39:59;;;;;;;19.05;12.85;;;6.90;73.90;;;;;;6230725;23;20072;-63
2021/04/21 00:42:45;;;;;;;19.77;12.02;;;6.90;74.30;;;;;;6197481;23;20052;-63
2021/04/21 00:45:15;;;;;;;19.23;12.00;;;7.00;73.60;;;;;;6210333;23;20005;-63
2021/04/21 00:47:48;;;;;;;18.10;12.18;;;7.10;72.70;;;;;;6209822;23;19993;-62
2021/04/21 00:50:16;;;;;;;19.73;12.07;;;6.90;72.80;;;;;;6200118;23;20059;-63
2021/04/21 00:52:50;;;;;;;20.05;12.00;;;6.80;73.90;;;;;;6176076;23;20011;-63
2021/04/21 00:55:39;;;;;;;16.38;11.07;;;6.80;74.50;;;;;;6178392;23;20297;-63
2021/04/21 00:58:12;;;;;;;19.02;11.65;;;7.10;73.20;;;;;;6205575;23;20011;-63
2021/04/21 01:00:43;;;;;;;16.77;11.13;;;7.20;73.00;;;;;;6181944;23;20291;-62
2021/04/21 01:03:20;;;;;;;16.20;11.13;;;7.20;72.50;;;;;;6235837;23;20008;-63
2021/04/21 01:05:48;;;;;;;18.73;11.45;;;7.20;72.40;;;;;;6199731;23;20063;-63
2021/04/21 01:08:15;;;;;;;19.77;12.02;;;6.90;71.70;;;;;;6173466;23;20004;-63
2021/04/21 01:10:55;;;;;;;19.58;11.32;;;6.80;73.00;;;;;;6178086;23;20068;-63
2021/04/21 01:13:20;;;;;;;18.48;10.65;;;6.80;73.70;;;;;;6181018;23;20076;-63
2021/04/21 01:15:46;;;;;;;15.80;10.85;;;6.90;73.40;;;;;;6233237;23;20196;-62
2021/04/21 01:18:12;;;;;;;18.90;11.85;;;7.00;72.30;;;;;;6182916;23;19996;-63
2021/04/21 01:21:02;;;;;;;18.40;11.30;;;6.80;72.10;;;;;;6186653;23;20008;-63
2021/04/21 01:23:44;;;;;;;17.83;10.77;;;6.40;72.90;;;;;;6202869;23;20004;-62
2021/04/21 01:26:10;;;;;;;15.52;11.05;;;6.60;73.40;;;;;;6227213;23;20230;-63
2021/04/21 01:28:38;;;;;;;18.13;10.95;;;6.70;73.40;;;;;;6229117;23;20005;-63
2021/04/21 01:31:03;;;;;;;15.93;10.60;;;6.60;73.10;;;;;;6205185;23;20004;-63
2021/04/21 01:33:29;;;;;;;14.40;10.00;;;6.60;73.20;;;;;;6225390;23;20004;-63
2021/04/21 01:36:05;;;;;;;17.23;9.90;;;6.70;72.90;;;;;;6211244;23;20051;-62
2021/04/21 01:38:31;;;;;;;15.13;10.10;;;6.60;72.50;;;;;;6199347;23;20287;-62
2021/04/21 01:40:58;;;;;;;13.93;10.00;;;6.50;73.40;;;;;;6200139;23;20012;-63
2021/04/21 01:43:44;;;;;;;14.52;10.00;;;6.60;72.40;;;;;;6224894;23;20008;-63
2021/04/21 01:46:09;;;;;;;16.67;10.75;;;6.60;73.00;;;;;;6203656;23;20055;-62
2021/04/21 01:48:35;;;;;;;14.38;9.75;;;6.50;72.80;;;;;;6205687;23;20292;-62
2021/04/21 01:51:21;;;;;;;15.15;10.13;;;6.50;72.90;;;;;;6237611;23;19996;-63
2021/04/21 01:53:48;;;;;;;14.98;9.93;;;6.50;73.20;;;;;;6225818;23;20219;-63
2021/04/21 01:56:25;;;;;;;14.43;9.68;;;6.60;72.90;;;;;;6226222;23;20008;-63
2021/04/21 01:58:56;;;;;;;15.00;9.57;;;6.80;72.40;;;;;;6202262;23;20009;-63
2021/04/21 02:01:36;;;;;;;14.98;9.98;;;6.60;71.80;;;;;;6178825;23;20012;-62
2021/04/21 02:04:22;;;;;;;15.38;9.95;;;6.50;72.50;;;;;;6204510;23;20311;-63
2021/04/21 02:07:08;;;;;;;14.02;9.43;;;6.20;73.50;;;;;;6205667;23;20071;-63
2021/04/21 02:09:54;;;;;;;16.67;9.52;;;6.40;73.10;;;;;;6184255;23;20044;-63
2021/04/21 02:12:37;;;;;;;14.43;9.27;;;6.50;72.30;;;;;;6210373;23;20001;-63
2021/04/21 02:15:21;;;;;;;15.07;9.52;;;6.40;72.30;;;;;;6237199;23;20035;-63
2021/04/21 02:18:10;;;;;;;16.13;10.15;;;6.10;73.20;;;;;;6225721;23;20008;-63
2021/04/21 02:20:44;;;;;;;14.50;9.65;;;5.90;73.10;;;;;;6197499;23;20009;-63
2021/04/21 02:23:28;;;;;;;16.35;10.45;;;6.00;73.40;;;;;;6200079;23;20004;-63
2021/04/21 02:26:01;;;;;;;14.90;9.65;;;6.10;73.30;;;;;;6227459;23;20024;-63
2021/04/21 02:28:46;;;;;;;15.32;9.85;;;6.30;73.10;;;;;;6202594;23;20015;-63
2021/04/21 02:31:24;;;;;;;13.38;9.13;;;5.90;72.60;;;;;;6203886;23;20004;-63
2021/04/21 02:34:07;;;;;;;14.80;9.77;;;6.10;73.80;;;;;;6230875;23;20008;-63
2021/04/21 02:37:02;;;;;;;14.32;9.35;;;6.20;72.80;;;;;;6233140;23;20219;-63
2021/04/21 02:39:38;;;;;;;12.77;8.75;;;6.10;71.90;;;;;;6152497;23;20005;-63
2021/04/21 02:42:28;;;;;;;14.77;9.60;;;5.90;72.70;;;;;;6211962;23;20019;-63
2021/04/21 02:45:19;;;;;;;15.40;9.20;;;5.70;73.40;;;;;;6203570;23;20016;-63
2021/04/21 02:47:51;;;;;;;13.17;8.97;;;5.70;74.30;;;;;;6198950;23;20038;-63
2021/04/21 02:50:20;;;;;;;14.00;8.57;;;5.90;73.10;;;;;;6200516;23;20025;-64
2021/04/21 02:53:23;;;;;;;13.63;8.75;;;5.90;73.60;;;;;;6173716;23;20005;-63
2021/04/21 02:55:58;;;;;;;12.55;8.35;;;5.90;72.50;;;;;;6227289;23;20004;-63
2021/04/21 02:58:45;;;;;;;13.13;8.40;;;6.00;72.50;;;;;;6229748;23;20303;-63
2021/04/21 03:01:48;;;;;;;11.93;7.97;;;6.10;72.80;;;;;;6172311;23;20004;-63
2021/04/21 03:04:25;;;;;;;13.13;8.32;;;6.00;72.30;;;;;;6229347;23;20031;-63
2021/04/21 03:06:51;;;;;;;12.15;8.25;;;5.90;72.60;;;;;;6149305;23;20075;-63
2021/04/21 03:09:59;;;;;;;12.80;7.82;;;5.70;72.60;;;;;;6232494;23;20017;-63
2021/04/21 03:12:26;;;;;;;10.68;7.43;;;5.60;73.70;;;;;;6188524;23;20000;-63
2021/04/21 03:14:56;;;;;;;11.20;7.97;;;5.90;73.30;;;;;;6185729;23;20179;-63
2021/04/21 03:17:22;;;;;;;10.95;8.02;;;5.90;73.00;;;;;;6198497;23;20005;-63
2021/04/21 03:19:49;;;;;;;12.05;8.18;;;6.10;72.70;;;;;;6227924;23;20166;-63
2021/04/21 03:22:15;;;;;;;10.77;7.68;;;6.00;72.40;;;;;;6178335;23;20004;-63
2021/04/21 03:24:48;;;;;;;11.80;7.68;;;6.10;72.40;;;;;;6180866;23;20016;-63
2021/04/21 03:27:14;;;;;;;11.57;7.78;;;6.20;71.70;;;;;;6183397;23;20001;-63
2021/04/21 03:29:45;;;;;;;11.13;7.70;;;6.10;71.80;;;;;;6200335;23;20003;-63
2021/04/21 03:32:13;;;;;;;12.32;7.70;;;6.10;71.50;;;;;;6175156;23;20013;-63
2021/04/21 03:34:39;;;;;;;12.43;7.75;;;5.90;71.40;;;;;;6202255;23;20075;-63
2021/04/21 03:37:32;;;;;;;11.43;7.45;;;5.60;72.00;;;;;;6228187;23;20068;-63
2021/04/21 03:39:58;;;;;;;11.75;8.20;;;5.70;72.70;;;;;;6184648;23;20087;-63
2021/04/21 03:42:23;;;;;;;13.68;8.32;;;5.70;72.90;;;;;;6207582;23;20290;-63
2021/04/21 03:44:49;;;;;;;11.07;7.60;;;5.60;72.10;;;;;;6236608;23;20000;-63
2021/04/21 03:47:14;;;;;;;12.88;7.43;;;5.40;73.00;;;;;;6174379;23;20005;-63
2021/04/21 03:49:40;;;;;;;11.48;7.40;;;5.40;73.30;;;;;;6201682;23;20060;-63
2021/04/21 03:52:05;;;;;;;10.43;7.25;;;5.60;73.40;;;;;;6179083;23;20008;-63
2021/04/21 03:54:31;;;;;;;11.05;7.00;;;5.80;72.60;;;;;;6224364;23;20024;-63
2021/04/21 03:56:58;;;;;;;12.43;7.85;;;5.90;72.30;;;;;;6185135;23;19997;-63
2021/04/21 03:59:23;;;;;;;13.05;7.57;;;5.70;71.40;;;;;;6198987;23;20012;-63
2021/04/21 04:01:49;;;;;;;11.10;7.43;;;5.30;72.60;;;;;;6200817;23;20005;-63
2021/04/21 04:04:14;;;;;;;13.13;7.80;;;5.20;73.40;;;;;;6178034;23;20131;-63
2021/04/21 04:06:47;;;;;;;13.48;7.15;;;5.30;73.40;;;;;;6231235;23;20008;-63
2021/04/21 04:09:13;;;;;;;11.73;7.43;;;5.20;73.00;;;;;;6233392;23;20231;-63
2021/04/21 04:11:42;;;;;;;11.18;7.38;;;5.10;73.20;;;;;;6236027;23;20051;-63
2021/04/21 04:14:22;;;;;;;12.98;7.57;;;5.30;73.30;;;;;;6200188;23;20001;-63
2021/04/21 04:16:52;;;;;;;12.05;7.93;;;5.40;73.50;;;;;;6226400;23;20234;-63
2021/04/21 04:19:18;;;;;;;13.15;7.28;;;5.50;72.70;;;;;;6229164;23;20000;-63
2021/04/21 04:21:45;;;;;;;11.93;7.88;;;5.50;72.00;;;;;;6223845;23;20005;-63
2021/04/21 04:24:12;;;;;;;15.07;8.05;;;5.60;72.10;;;;;;6184986;23;19996;-63
2021/04/21 04:26:42;;;;;;;10.85;7.60;;;5.60;72.00;;;;;;6224471;23;20009;-63
2021/04/21 04:29:08;;;;;;;11.05;7.55;;;5.70;71.70;;;;;;6226389;23;20279;-63
2021/04/21 04:31:35;;;;;;;13.50;7.68;;;5.70;71.70;;;;;;6228317;23;20295;-63
2021/04/21 04:34:01;;;;;;;14.07;7.90;;;5.70;71.40;;;;;;6230537;23;20196;-63
2021/04/21 04:36:27;;;;;;;12.32;7.90;;;5.50;72.50;;;;;;6157109;23;19996;-63
2021/04/21 04:38:52;;;;;;;15.98;8.32;;;5.40;71.50;;;;;;6210229;23;19993;-63
2021/04/21 04:41:18;;;;;;;12.55;7.90;;;5.30;72.70;;;;;;6200666;23;20005;-63
2021/04/21 04:43:43;;;;;;;14.73;7.88;;;5.30;73.00;;;;;;6198297;23;20024;-63
2021/04/21 04:46:09;;;;;;;11.57;7.35;;;5.30;73.10;;;;;;6230870;23;20009;-63
2021/04/21 04:48:45;;;;;;;9.90;7.07;;;5.00;72.70;;;;;;6207652;23;20008;-63
2021/04/21 04:51:11;;;;;;;12.18;7.93;;;4.90;74.00;;;;;;6236133;23;20175;-63
2021/04/21 04:53:37;;;;;;;11.85;7.05;;;4.90;74.50;;;;;;6238164;23;20005;-63
2021/04/21 04:56:04;;;;;;;8.85;6.25;;;5.00;74.50;;;;;;6176275;23;20064;-63
2021/04/21 04:58:29;;;;;;;9.82;6.28;;;5.00;74.70;;;;;;6174719;23;20353;-63
2021/04/21 05:01:06;;;;;;;10.43;6.68;;;5.40;74.30;;;;;;6206663;23;20291;-62
2021/04/21 05:03:48;;;;;;;9.27;6.45;;;5.40;73.60;;;;;;6233116;23;20365;-63
2021/04/21 05:06:15;;;;;;;11.85;7.15;;;5.50;73.70;;;;;;6199241;23;20004;-63
2021/04/21 05:08:46;;;;;;;8.18;6.07;;;5.60;73.40;;;;;;6187216;23;20016;-63
2021/04/21 05:11:18;;;;;;;10.30;6.20;;;5.60;73.90;;;;;;6225728;23;20004;-63
2021/04/21 05:13:51;;;;;;;12.57;6.40;;;5.70;73.70;;;;;;6203263;23;20278;-63
2021/04/21 05:16:55;;;;;;;11.05;6.15;;;5.70;73.90;;;;;;6225753;23;20288;-62
2021/04/21 05:19:21;;;;;;;8.88;6.25;;;6.00;73.60;;;;;;6204170;23;20399;-62
2021/04/21 05:22:09;;;;;;;9.05;6.53;;;6.10;73.30;;;;;;6233154;23;20004;-63
2021/04/21 05:25:02;;;;;;;11.18;6.68;;;6.20;73.10;;;;;;6189162;23;20005;-64
2021/04/21 05:27:55;;;;;;;9.93;6.68;;;6.30;72.90;;;;;;6161932;23;20035;-63
2021/04/21 05:30:45;;;;;;;9.45;6.68;;;6.40;72.90;;;;;;6212252;23;20020;-63
2021/04/21 05:33:48;;;;;;;10.70;6.45;;;6.40;72.80;;;;;;6237153;23;20016;-63
2021/04/21 05:36:22;;;;;;;9.07;6.30;;;6.30;73.30;;;;;;6225025;23;20336;-64
2021/04/21 05:38:48;;;;;;;10.20;6.30;;;6.20;73.50;;;;;;6237789;23;20113;-64
2021/04/21 05:41:51;;;;;;;10.00;6.00;;;6.40;73.70;;;;;;6227399;23;20112;-63
2021/04/21 05:44:54;;;;;;;8.32;5.80;;;6.50;73.10;;;;;;6226167;23;20008;-63
2021/04/21 05:47:47;;;;;;;11.60;6.40;;;6.70;73.10;;;;;;6226688;23;20008;-63
2021/04/21 05:50:38;;;;;;;8.52;5.93;;;6.80;72.60;;;;;;6226042;23;20051;-63
2021/04/21 05:53:13;;;;;;;9.90;6.15;;;6.90;72.20;;;;;;6226884;23;20005;-63
2021/04/21 05:55:56;;;;;;;9.02;6.18;;;6.80;72.60;;;;;;6229411;23;20068;-63
2021/04/21 05:58:43;;;;;;;10.02;6.32;;;6.80;72.90;;;;;;6226430;23;20243;-62
2021/04/21 06:01:24;;;;;;;15.15;6.97;;;6.90;72.60;;;;;;6231125;23;20000;-63
2021/04/21 06:03:55;;;;;;;16.17;6.30;;;7.00;72.50;;;;;;6205381;23;20082;-63
2021/04/21 06:06:20;;;;;;;10.25;6.15;;;7.10;72.20;;;;;;6224316;23;20055;-63
2021/04/21 06:08:46;;;;;;;8.63;6.15;;;7.20;71.70;;;;;;6237101;23;20020;-63
2021/04/21 06:11:19;;;;;;;15.55;6.68;;;7.30;71.30;;;;;;6226494;23;20307;-63
2021/04/21 06:13:45;;;;;;;13.55;6.80;;;7.30;71.60;;;;;;6228495;23;20076;-63
2021/04/21 06:16:17;;;;;;;10.80;6.72;;;7.40;71.30;;;;;;6230492;23;20001;-63
2021/04/21 06:18:44;;;;;;;9.70;6.75;;;7.40;70.80;;;;;;6174092;23;20000;-62
2021/04/21 06:21:17;;;;;;;11.50;6.75;;;7.50;70.90;;;;;;6226888;23;20001;-63
2021/04/21 06:23:42;;;;;;;13.98;6.90;;;7.60;71.30;;;;;;6224332;23;20008;-63
2021/04/21 06:26:08;;;;;;;10.30;6.70;;;7.80;71.90;;;;;;6226041;23;20063;-62
2021/04/21 06:28:34;;;;;;;9.15;6.32;;;7.80;71.30;;;;;;6228159;23;20042;-62
2021/04/21 06:31:07;;;;;;;16.88;7.25;;;7.90;71.00;;;;;;6224670;23;20008;-63
2021/04/21 06:33:34;;;;;;;9.70;6.30;;;8.10;70.80;;;;;;6181808;23;20024;-62
2021/04/21 06:35:59;;;;;;;12.25;6.53;;;8.30;70.50;;;;;;6236755;23;19996;-62
2021/04/21 06:38:29;;;;;;;13.70;6.70;;;8.40;70.40;;;;;;6225506;23;20051;-62
2021/04/21 06:40:55;;;;;;;10.88;6.68;;;8.50;70.60;;;;;;6201437;23;20172;-63
2021/04/21 06:43:27;;;;;;;12.40;6.22;;;8.60;70.30;;;;;;6229347;23;20004;-68
2021/04/21 06:45:53;;;;;;;13.13;6.65;;;8.80;70.00;;;;;;6231341;23;20326;-63
2021/04/21 06:48:36;;;;;;;12.65;6.93;;;8.90;69.90;;;;;;6233579;23;19996;-67
2021/04/21 06:51:15;;;;;;;9.07;6.07;;;8.90;69.50;;;;;;6236997;23;20060;-67
2021/04/21 06:53:44;;;;;;;11.00;6.45;;;9.10;69.50;;;;;;6224807;23;20012;-67
2021/04/21 06:56:10;;;;;;;11.98;6.93;;;9.40;69.00;;;;;;6226502;23;20012;-67
2021/04/21 06:58:37;;;;;;;9.45;6.63;;;9.60;68.40;;;;;;6229059;23;20227;-64
2021/04/21 07:01:15;;;;;;;10.18;6.22;;;9.70;67.00;;;;;;6230933;23;20008;-61
2021/04/21 07:03:42;;;;;;;10.18;5.97;;;9.90;65.60;;;;;;6231759;23;20009;-60
2021/04/21 07:06:07;;;;;;;10.38;6.35;;;10.30;66.10;;;;;;6236859;23;20000;-60
2021/04/21 07:08:35;;;;;;;8.88;6.30;;;10.80;65.10;;;;;;6198020;23;20039;-61
2021/04/21 07:11:02;;;;;;;10.13;6.32;;;11.10;63.70;;;;;;6200556;23;20005;-60
2021/04/21 07:13:53;;;;;;;10.80;7.60;;;11.90;61.90;;;;;;6203044;23;20032;-62
2021/04/21 07:16:20;;;;;;;10.90;7.90;;;17.90;47.20;;;;;;6224165;23;20072;-62
2021/04/21 07:19:05;;;;;;;10.25;7.80;;;24.70;31.90;;;;;;6181059;23;20013;-62
2021/04/21 07:21:31;;;;;;;8.82;7.90;;;30.20;23.40;;;;;;6232595;23;20013;-62
2021/04/21 07:23:59;;;;;;;8.25;7.25;;;35.70;17.50;;;;;;6210154;23;20000;-62
2021/04/21 07:26:33;;;;;;;9.45;6.88;;;39.70;14.10;;;;;;6225185;23;20015;-63
2021/04/21 07:28:59;;;;;;;7.07;6.38;;;42.50;11.80;;;;;;6201171;23;20299;-61
2021/04/21 07:31:25;;;;;;;10.13;6.60;;;44.40;10.60;;;;;;6201387;23;20035;-62
2021/04/21 07:33:50;;;;;;;9.45;6.40;;;46.30;9.70;;;;;;6204957;23;20009;-63
2021/04/21 07:36:27;;;;;;;8.90;5.80;;;48.00;8.80;;;;;;6234310;23;20031;-63
2021/04/21 07:38:57;;;;;;;7.88;4.72;;;49.20;8.20;;;;;;6236608;23;20004;-62
2021/04/21 07:41:43;;;;;;;6.97;4.38;;;49.60;7.90;;;;;;6198544;23;20013;-61
2021/04/21 07:44:36;;;;;;;7.63;4.40;;;49.80;7.40;;;;;;6226306;23;20015;-62
2021/04/21 07:47:05;;;;;;;6.50;4.15;;;47.00;8.70;;;;;;6226687;23;20009;-63
2021/04/21 07:49:30;;;;;;;9.02;3.88;;;39.20;12.40;;;;;;6223273;23;20000;-61
2021/04/21 07:51:56;;;;;;;7.57;4.10;;;33.40;16.40;;;;;;6230635;23;20103;-62
2021/04/21 07:54:23;;;;;;;7.80;4.15;;;28.60;21.00;;;;;;6197425;23;20059;-62
2021/04/21 07:57:07;;;;;;;6.82;4.70;;;24.60;25.30;;;;;;6236842;23;20000;-62
2021/04/21 07:59:34;;;;;;;9.13;5.00;;;21.80;30.60;;;;;;6224417;23;20062;-62
2021/04/21 08:02:13;;;;;;;8.40;4.75;;;19.70;35.10;;;;;;6197792;23;20072;-62
2021/04/21 08:04:56;;;;;;;12.00;4.65;;;18.50;37.20;;;;;;6227774;23;20012;-62
2021/04/21 08:07:30;;;;;;;7.40;4.82;;;17.70;40.10;;;;;;6229494;23;20004;-62
2021/04/21 08:09:56;;;;;;;14.40;4.85;;;17.30;40.80;;;;;;6230862;23;20067;-63
2021/04/21 08:12:22;;;;;;;7.70;4.78;;;16.90;41.10;;;;;;6233287;23;19997;-63
2021/04/21 08:14:52;;;;;;;7.20;5.18;;;16.70;41.50;;;;;;6237413;23;20008;-62
2021/04/21 08:17:18;;;;;;;9.68;5.30;;;16.40;42.00;;;;;;6227675;23;20008;-64
2021/04/21 08:19:46;;;;;;;9.18;5.70;;;16.40;43.50;;;;;;6203596;23;20191;-62
2021/04/21 08:22:12;;;;;;;11.68;4.93;;;16.30;44.80;;;;;;6199489;23;20013;-63
2021/04/21 08:24:45;;;;;;;5.70;4.57;;;16.40;42.90;;;;;;6225609;23;20322;-62
2021/04/21 08:27:15;;;;;;;6.25;4.57;;;16.30;42.90;;;;;;6238125;23;20212;-63
2021/04/21 08:29:41;;;;;;;5.95;4.38;;;16.20;43.60;;;;;;6227122;23;20043;-61
2021/04/21 08:32:08;;;;;;;6.75;4.40;;;16.20;43.10;;;;;;6228573;23;20050;-61
2021/04/21 08:34:33;;;;;;;6.25;4.43;;;16.10;42.00;;;;;;6230586;23;20004;-62
2021/04/21 08:36:59;;;;;;;5.07;3.95;;;16.20;40.10;;;;;;6232426;23;20060;-61
2021/04/21 08:39:25;;;;;;;6.70;4.47;;;16.10;42.40;;;;;;6173897;23;20195;-61
2021/04/21 08:41:54;;;;;;;10.15;6.13;;;16.10;41.40;;;;;;6238620;23;19997;-61
2021/04/21 08:44:19;;;;;;;6.53;5.05;;;16.00;42.70;;;;;;6227334;23;20032;-61
2021/04/21 08:46:45;;;;;;;8.80;6.30;;;16.10;42.50;;;;;;6229593;23;20319;-61
2021/04/21 08:49:10;;;;;;;8.02;6.00;;;16.10;42.70;;;;;;6180357;23;20004;-61
2021/04/21 08:51:36;;;;;;;6.90;5.38;;;15.90;43.10;;;;;;6207708;23;20021;-62
2021/04/21 08:54:06;;;;;;;15.52;6.53;;;16.00;42.30;;;;;;6238038;23;20007;-61
2021/04/21 08:56:33;;;;;;;9.43;6.13;;;16.10;44.40;;;;;;6225176;23;20177;-61
2021/04/21 08:58:59;;;;;;;11.80;6.65;;;16.30;41.20;;;;;;6227517;23;20247;-61
2021/04/21 09:01:24;;;;;;;9.80;6.60;;;16.30;41.90;;;;;;6230690;23;20008;-61
2021/04/21 09:03:50;;;;;;;8.85;6.25;;;16.30;41.30;;;;;;6206539;23;20020;-62
2021/04/21 09:06:17;;;;;;;10.88;7.63;;;16.40;41.90;;;;;;6235733;23;20047;-62
2021/04/21 09:08:44;;;;;;;9.20;6.85;;;16.60;45.30;;;;;;6227331;23;20252;-61
2021/04/21 09:11:10;;;;;;;10.65;7.28;;;16.60;42.60;;;;;;6176887;23;20001;-62
2021/04/21 09:13:35;;;;;;;12.88;8.70;;;16.50;40.10;;;;;;6197987;23;20076;-62
2021/04/21 09:16:01;;;;;;;10.38;7.55;;;16.30;39.70;;;;;;6225637;23;20197;-62
2021/04/21 09:18:27;;;;;;;11.02;7.32;;;16.50;41.90;;;;;;6224857;23;20004;-61
2021/04/21 09:20:53;;;;;;;12.07;7.60;;;16.60;39.20;;;;;;6176200;23;20313;-59
2021/04/21 09:23:20;;;;;;;11.35;7.75;;;16.70;40.10;;;;;;6226753;23;20005;-59
2021/04/21 09:25:50;;;;;;;10.57;7.70;;;17.00;42.10;;;;;;6229419;23;20007;-59
2021/04/21 09:28:18;;;;;;;11.55;8.55;;;17.10;40.60;;;;;;6231088;23;20031;-59
2021/04/21 09:30:50;;;;;;;11.35;7.38;;;17.30;43.50;;;;;;6233438;23;20020;-60
2021/04/21 09:33:16;;;;;;;10.68;7.55;;;17.30;40.00;;;;;;6234889;23;20306;-61
2021/04/21 09:35:43;;;;;;;11.15;7.38;;;17.20;36.10;;;;;;6211372;23;20043;-59
2021/04/21 09:38:13;;;;;;;9.75;7.18;;;17.20;38.20;;;;;;6227533;23;20008;-59
2021/04/21 09:40:49;;;;;;;9.55;7.07;;;17.30;37.90;;;;;;6203597;23;20008;-59
2021/04/21 09:43:18;;;;;;;13.90;7.63;;;17.50;37.70;;;;;;6231021;23;20009;-59
2021/04/21 09:45:55;;;;;;;10.93;7.75;;;17.60;38.20;;;;;;6232795;23;20060;-59
2021/04/21 09:48:32;;;;;;;10.65;7.88;;;17.60;35.80;;;;;;6234486;23;19997;-59
2021/04/21 09:51:08;;;;;;;10.88;7.68;;;17.60;39.50;;;;;;6237538;23;19992;-58
2021/04/21 09:53:41;;;;;;;12.15;7.28;;;17.80;36.50;;;;;;6198911;23;20311;-59
2021/04/21 09:56:19;;;;;;;12.05;7.70;;;17.80;38.80;;;;;;6227007;23;20012;-60
2021/04/21 09:58:58;;;;;;;16.33;6.95;;;17.80;36.70;;;;;;6225088;23;20027;-59
2021/04/21 10:01:23;;;;;;;10.82;7.30;;;18.00;35.00;;;;;;6229309;23;20299;-59
2021/04/21 10:04:06;;;;;;;10.35;6.97;;;18.00;35.50;;;;;;6231416;23;20039;-59
2021/04/21 10:06:32;;;;;;;14.85;7.28;;;18.30;35.40;;;;;;6233113;23;20050;-59
2021/04/21 10:08:57;;;;;;;10.90;6.65;;;18.30;32.90;;;;;;6230025;23;20029;-59
2021/04/21 10:11:23;;;;;;;10.18;7.05;;;18.50;36.80;;;;;;6224655;23;20060;-60
2021/04/21 10:13:53;;;;;;;10.73;7.32;;;18.70;35.80;;;;;;6227769;23;20005;-60
2021/04/21 10:16:18;;;;;;;11.45;7.45;;;18.60;36.20;;;;;;6229854;23;20230;-59
2021/04/21 10:18:44;;;;;;;9.38;7.07;;;18.80;38.30;;;;;;6198496;23;20072;-60
2021/04/21 10:21:11;;;;;;;10.15;6.65;;;18.90;34.00;;;;;;6210662;23;20276;-60
2021/04/21 10:23:37;;;;;;;13.73;7.53;;;18.80;34.90;;;;;;6224672;23;20009;-60
2021/04/21 10:26:06;;;;;;;11.52;7.45;;;18.80;33.10;;;;;;6225959;23;20023;-59
2021/04/21 10:28:32;;;;;;;11.90;7.55;;;18.80;36.00;;;;;;6228903;23;20311;-59
2021/04/21 10:31:00;;;;;;;11.50;7.90;;;18.80;33.40;;;;;;6197626;23;20076;-60
2021/04/21 10:33:27;;;;;;;10.73;7.45;;;18.90;36.90;;;;;;6233745;23;20000;-60
2021/04/21 10:35:52;;;;;;;12.48;7.97;;;18.90;35.90;;;;;;6237373;23;20000;-61
2021/04/21 10:38:24;;;;;;;11.45;7.63;;;18.90;36.50;;;;;;6226277;23;20008;-62
2021/04/21 10:40:51;;;;;;;11.10;7.90;;;18.40;35.40;;;;;;6227036;23;20009;-61
2021/04/21 10:43:39;;;;;;;10.45;7.70;;;18.10;36.70;;;;;;6202850;23;20204;-61
2021/04/21 10:46:05;;;;;;;10.90;7.43;;;17.90;36.50;;;;;;6229796;23;20338;-62
2021/04/21 10:48:44;;;;;;;9.95;6.97;;;17.60;35.80;;;;;;6233295;23;20001;-63
2021/04/21 10:51:35;;;;;;;10.65;8.00;;;17.30;35.80;;;;;;6237046;23;20279;-62
2021/04/21 10:54:05;;;;;;;10.30;7.43;;;17.10;35.30;;;;;;6198524;23;20008;-63
2021/04/21 10:56:31;;;;;;;10.65;7.15;;;16.90;36.10;;;;;;6198322;23;20054;-62
2021/04/21 10:58:58;;;;;;;11.75;7.55;;;16.80;35.30;;;;;;6201010;23;20307;-64
2021/04/21 11:01:36;;;;;;;11.20;7.40;;;17.10;36.70;;;;;;6224737;23;20008;-63
2021/04/21 11:04:03;;;;;;;11.77;7.63;;;17.30;38.30;;;;;;6225801;23;20010;-63
2021/04/21 11:06:41;;;;;;;11.63;7.70;;;17.30;35.00;;;;;;6232977;23;20223;-64
2021/04/21 11:09:08;;;;;;;10.60;7.38;;;17.40;37.60;;;;;;6175044;23;20039;-63
2021/04/21 11:11:46;;;;;;;11.93;7.60;;;17.80;36.50;;;;;;6224894;23;20012;-60
2021/04/21 11:14:14;;;;;;;10.95;7.72;;;18.10;33.60;;;;;;6226832;23;20005;-60
2021/04/21 11:16:44;;;;;;;10.82;7.35;;;18.20;36.50;;;;;;6228500;23;20056;-59
2021/04/21 11:19:19;;;;;;;10.45;7.07;;;18.60;36.90;;;;;;6229404;23;20004;-59
2021/04/21 11:21:49;;;;;;;11.60;7.25;;;18.50;34.40;;;;;;6197616;23;20167;-60
2021/04/21 11:24:15;;;;;;;9.45;6.93;;;18.80;33.20;;;;;;6182887;23;20027;-61
2021/04/21 11:26:45;;;;;;;10.82;7.85;;;19.00;35.80;;;;;;6199795;23;20000;-61
2021/04/21 11:29:21;;;;;;;10.13;6.95;;;18.90;32.30;;;;;;6224547;23;20008;-62
2021/04/21 11:31:50;;;;;;;11.25;7.10;;;19.00;34.00;;;;;;6227345;23;20212;-60
2021/04/21 11:34:20;;;;;;;11.68;6.80;;;19.20;32.30;;;;;;6202287;23;20031;-60
2021/04/21 11:37:08;;;;;;;9.25;6.82;;;19.40;33.40;;;;;;6231448;23;20013;-64
2021/04/21 11:39:43;;;;;;;9.23;6.70;;;19.70;34.60;;;;;;6232816;23;20000;-61
2021/04/21 11:42:40;;;;;;;12.90;6.38;;;19.90;32.60;;;;;;6236511;23;20007;-61
2021/04/21 11:45:19;;;;;;;11.13;6.45;;;20.00;34.80;;;;;;6224917;23;20012;-61
2021/04/21 11:48:00;;;;;;;9.38;6.45;;;20.20;30.70;;;;;;6225295;23;20008;-61
2021/04/21 11:50:27;;;;;;;10.32;6.95;;;20.30;30.10;;;;;;6225498;23;20069;-66
2021/04/21 11:53:06;;;;;;;11.98;7.07;;;20.30;32.40;;;;;;6226293;23;20024;-61
2021/04/21 11:55:37;;;;;;;10.35;7.53;;;20.10;30.60;;;;;;6219407;23;20131;-62
2021/04/21 11:58:20;;;;;;;8.38;6.55;;;19.90;30.90;;;;;;6229362;23;20016;-66
2021/04/21 12:00:52;;;;;;;9.50;6.75;;;20.20;31.80;;;;;;6231851;23;20051;-62
2021/04/21 12:03:18;;;;;;;10.93;6.93;;;20.30;31.90;;;;;;6233505;23;20001;-63
2021/04/21 12:05:46;;;;;;;9.38;6.80;;;20.30;29.50;;;;;;6209710;23;20001;-62
2021/04/21 12:08:12;;;;;;;10.63;6.28;;;20.10;29.10;;;;;;6172449;23;20180;-63
2021/04/21 12:10:40;;;;;;;8.27;6.50;;;20.00;31.20;;;;;;6228261;23;20016;-62
2021/04/21 12:13:19;;;;;;;9.32;6.10;;;19.90;30.40;;;;;;6230144;23;20008;-62
2021/04/21 12:15:46;;;;;;;8.32;6.00;;;20.20;32.70;;;;;;6231795;23;20004;-62
2021/04/21 12:18:31;;;;;;;9.35;6.72;;;20.30;30.70;;;;;;6234465;23;20343;-62
2021/04/21 12:20:57;;;;;;;7.93;5.90;;;19.90;28.70;;;;;;6225942;23;20066;-62
2021/04/21 12:23:33;;;;;;;7.85;5.80;;;19.60;30.30;;;;;;6224359;23;20008;-65
2021/04/21 12:25:59;;;;;;;8.32;6.30;;;19.30;32.80;;;;;;6225751;23;20008;-62
2021/04/21 12:28:25;;;;;;;9.38;6.60;;;19.30;32.60;;;;;;6197285;23;20015;-62
2021/04/21 12:30:58;;;;;;;11.45;6.88;;;19.60;32.10;;;;;;6231271;23;20009;-62
2021/04/21 12:33:24;;;;;;;13.63;7.88;;;19.80;32.10;;;;;;6232989;23;20028;-62
2021/04/21 12:35:54;;;;;;;9.38;6.68;;;19.90;30.80;;;;;;6209927;23;20008;-62
2021/04/21 12:38:33;;;;;;;12.13;6.73;;;20.10;31.50;;;;;;6224331;23;20020;-61
2021/04/21 12:41:00;;;;;;;12.07;7.03;;;19.90;32.10;;;;;;6226461;23;20008;-61
2021/04/21 12:43:27;;;;;;;10.35;6.47;;;19.40;29.70;;;;;;6228857;23;20004;-61
2021/04/21 12:45:53;;;;;;;9.80;6.13;;;19.30;32.40;;;;;;6230991;23;20090;-62
2021/04/21 12:48:22;;;;;;;7.38;5.53;;;19.50;31.20;;;;;;6222879;23;20001;-62
2021/04/21 12:50:56;;;;;;;9.95;6.60;;;19.70;33.10;;;;;;6236041;23;20016;-61
2021/04/21 12:53:23;;;;;;;10.13;7.15;;;19.80;33.20;;;;;;6175784;23;20012;-61
2021/04/21 12:56:02;;;;;;;9.13;6.75;;;19.30;32.10;;;;;;6227423;23;20013;-62
2021/04/21 12:58:32;;;;;;;9.38;6.65;;;19.20;31.70;;;;;;6204754;23;20021;-62
2021/04/21 13:01:13;;;;;;;7.70;6.10;;;19.30;32.00;;;;;;6231942;23;20005;-61
2021/04/21 13:03:53;;;;;;;10.00;6.22;;;19.20;31.00;;;;;;6199299;23;20220;-61
2021/04/21 13:06:33;;;;;;;7.85;6.57;;;19.10;32.10;;;;;;6234699;23;20279;-62
2021/04/21 13:09:10;;;;;;;8.77;6.57;;;18.80;30.80;;;;;;6211488;23;20078;-61